PWSweather.com
Personal Weather Stations
Station Observations
WATERF01
WaterfordIE

WaterfordIE

Lat: 52.2412507, Lon: -7.1414691

Elevation: 65

Station Type: Davis Vantage Vue

www.waterfordweather.com

High Low Average
Temperature 53.8°F12.1°C 36.5°F2.5°C 43.1°F6.2°C
Dew Point 50.5°F10.3°C 31.8°F-0.1°C 37.9°F3.3°C
Winds 18.4 mph 29.6 kmh 2.3 mph 3.7 kmh 8.0 mph W12.9 kmh W
Wind Gusts 32.2 mph51.8 kmh 4.6 mph7.4 kmh 14.0 mph22.5 kmh
Humidity 99% 74% 82%
Pressure 29.86 in1011.2 mb 29.32 in992.9 mb -
Precipitation 0.19 in4.8 mm - -
Hour Temp Dew Point Humidity Winds Wind Gusts Pressure Precip Precip Rate Daily Precip Total
12:00 AM 36.5°F2.5°C 31.8°F-0.1°C 83% 6.9 mph W11.1 kmh W 11.5 mph18.5 kmh 29.53 in1000.0 mb - 0.00 in0.0 mm 0.00 in0.0 mm
12:10 AM 37.5°F3.1°C 31.9°F-0.1°C 80% 9.2 mph W14.8 kmh W 16.1 mph25.9 kmh 29.55 in1000.7 mb - 0.00 in0.0 mm 0.00 in0.0 mm
12:20 AM 38.1°F3.4°C 31.8°F-0.1°C 78% 11.5 mph W18.5 kmh W 16.1 mph25.9 kmh 29.56 in1001.0 mb - 0.00 in0.0 mm 0.00 in0.0 mm
12:30 AM 38.3°F3.5°C 32.0°F0.0°C 78% 6.9 mph WNW11.1 kmh WNW 16.1 mph25.9 kmh 29.57 in1001.4 mb - 0.00 in0.0 mm 0.00 in0.0 mm
12:40 AM 38.3°F3.5°C 32.0°F0.0°C 78% 12.7 mph WNW20.4 kmh WNW 21.9 mph35.2 kmh 29.58 in1001.7 mb - 0.00 in0.0 mm 0.00 in0.0 mm
12:50 AM 37.6°F3.1°C 32.3°F0.2°C 81% 8.1 mph NW13.0 kmh NW 15.0 mph24.1 kmh 29.58 in1001.7 mb - 0.00 in0.0 mm 0.00 in0.0 mm
01:00 AM 37.1°F2.8°C 32.1°F0.1°C 82% 8.1 mph NW13.0 kmh NW 19.6 mph31.5 kmh 29.58 in1001.7 mb - 0.00 in0.0 mm 0.00 in0.0 mm
01:10 AM 37.1°F2.8°C 31.8°F-0.1°C 81% 5.8 mph WNW9.3 kmh WNW 9.2 mph14.8 kmh 29.59 in1002.0 mb - 0.00 in0.0 mm 0.00 in0.0 mm
01:20 AM 37.2°F2.9°C 31.9°F-0.1°C 81% 6.9 mph WNW11.1 kmh WNW 11.5 mph18.5 kmh 29.59 in1002.0 mb - 0.00 in0.0 mm 0.00 in0.0 mm
01:30 AM 38.1°F3.4°C 31.8°F-0.1°C 78% 8.1 mph W13.0 kmh W 16.1 mph25.9 kmh 29.60 in1002.4 mb - 0.00 in0.0 mm 0.00 in0.0 mm
01:40 AM 38.3°F3.5°C 32.0°F0.0°C 78% 5.8 mph W9.3 kmh W 13.8 mph22.2 kmh 29.61 in1002.7 mb - 0.00 in0.0 mm 0.00 in0.0 mm
01:50 AM 38.3°F3.5°C 32.1°F0.1°C 78% 5.8 mph WNW9.3 kmh WNW 16.1 mph25.9 kmh 29.62 in1003.0 mb - 0.00 in0.0 mm 0.00 in0.0 mm
02:00 AM 38.5°F3.6°C 31.9°F-0.1°C 77% 6.9 mph WNW11.1 kmh WNW 12.7 mph20.4 kmh 29.62 in1003.0 mb - 0.00 in0.0 mm 0.00 in0.0 mm
02:10 AM 38.8°F3.8°C 31.9°F-0.1°C 76% 6.9 mph W11.1 kmh W 11.5 mph18.5 kmh 29.63 in1003.4 mb - 0.00 in0.0 mm 0.00 in0.0 mm
02:20 AM 39.4°F4.1°C 32.8°F0.4°C 77% 10.4 mph WNW16.7 kmh WNW 19.6 mph31.5 kmh 29.64 in1003.7 mb - 0.00 in0.0 mm 0.00 in0.0 mm
02:30 AM 39.3°F4.1°C 32.7°F0.4°C 77% 9.2 mph W14.8 kmh W 19.6 mph31.5 kmh 29.66 in1004.4 mb - 0.00 in0.0 mm 0.00 in0.0 mm
02:40 AM 38.4°F3.6°C 32.8°F0.4°C 80% 12.7 mph WNW20.4 kmh WNW 18.4 mph29.6 kmh 29.66 in1004.4 mb - 0.00 in0.0 mm 0.00 in0.0 mm
02:50 AM 37.4°F3.0°C 32.8°F0.4°C 83% 8.1 mph WNW13.0 kmh WNW 16.1 mph25.9 kmh 29.66 in1004.4 mb - 0.00 in0.0 mm 0.00 in0.0 mm
03:00 AM 37.3°F2.9°C 32.3°F0.2°C 82% 6.9 mph WNW11.1 kmh WNW 13.8 mph22.2 kmh 29.67 in1004.7 mb - 0.00 in0.0 mm 0.00 in0.0 mm
03:10 AM 37.7°F3.2°C 32.4°F0.2°C 81% 4.6 mph WNW7.4 kmh WNW 9.2 mph14.8 kmh 29.67 in1004.7 mb - 0.00 in0.0 mm 0.00 in0.0 mm
03:20 AM 38.1°F3.4°C 32.5°F0.3°C 80% 5.8 mph W9.3 kmh W 11.5 mph18.5 kmh 29.68 in1005.1 mb - 0.00 in0.0 mm 0.00 in0.0 mm
03:30 AM 38.5°F3.6°C 32.6°F0.3°C 79% 6.9 mph WNW11.1 kmh WNW 12.7 mph20.4 kmh 29.68 in1005.1 mb - 0.00 in0.0 mm 0.00 in0.0 mm
03:40 AM 38.8°F3.8°C 32.5°F0.3°C 78% 4.6 mph WNW7.4 kmh WNW 8.1 mph13.0 kmh 29.70 in1005.8 mb - 0.00 in0.0 mm 0.00 in0.0 mm
03:50 AM 39.0°F3.9°C 32.7°F0.4°C 78% 4.6 mph WNW7.4 kmh WNW 6.9 mph11.1 kmh 29.70 in1005.8 mb - 0.00 in0.0 mm 0.00 in0.0 mm
04:00 AM 38.8°F3.8°C 32.5°F0.3°C 78% 3.5 mph NW5.6 kmh NW 5.8 mph9.3 kmh 29.70 in1005.8 mb - 0.00 in0.0 mm 0.00 in0.0 mm
04:10 AM 38.1°F3.4°C 32.5°F0.3°C 80% 3.5 mph WNW5.6 kmh WNW 5.8 mph9.3 kmh 29.70 in1005.8 mb - 0.00 in0.0 mm 0.00 in0.0 mm
04:20 AM 38.3°F3.5°C 32.4°F0.2°C 79% 4.6 mph W7.4 kmh W 8.1 mph13.0 kmh 29.70 in1005.8 mb - 0.00 in0.0 mm 0.00 in0.0 mm
04:30 AM 38.8°F3.8°C 32.5°F0.3°C 78% 6.9 mph WNW11.1 kmh WNW 11.5 mph18.5 kmh 29.71 in1006.1 mb - 0.00 in0.0 mm 0.00 in0.0 mm
04:40 AM 39.2°F4.0°C 32.6°F0.3°C 77% 9.2 mph W14.8 kmh W 12.7 mph20.4 kmh 29.71 in1006.1 mb - 0.00 in0.0 mm 0.00 in0.0 mm
04:50 AM 39.9°F4.4°C 32.9°F0.5°C 76% 5.8 mph WNW9.3 kmh WNW 8.1 mph13.0 kmh 29.71 in1006.1 mb - 0.00 in0.0 mm 0.00 in0.0 mm
05:00 AM 40.0°F4.4°C 33.0°F0.6°C 76% 8.1 mph W13.0 kmh W 11.5 mph18.5 kmh 29.72 in1006.4 mb - 0.00 in0.0 mm 0.00 in0.0 mm
05:10 AM 40.1°F4.5°C 32.9°F0.5°C 75% 10.4 mph WNW16.7 kmh WNW 13.8 mph22.2 kmh 29.72 in1006.4 mb - 0.00 in0.0 mm 0.00 in0.0 mm
05:20 AM 40.4°F4.7°C 33.1°F0.6°C 75% 5.8 mph W9.3 kmh W 13.8 mph22.2 kmh 29.72 in1006.4 mb - 0.00 in0.0 mm 0.00 in0.0 mm
05:30 AM 40.4°F4.7°C 32.8°F0.4°C 74% 9.2 mph WNW14.8 kmh WNW 17.3 mph27.8 kmh 29.73 in1006.8 mb - 0.00 in0.0 mm 0.00 in0.0 mm
05:40 AM 40.4°F4.7°C 32.7°F0.4°C 74% 9.2 mph W14.8 kmh W 15.0 mph24.1 kmh 29.73 in1006.8 mb - 0.00 in0.0 mm 0.00 in0.0 mm
05:50 AM 40.6°F4.8°C 33.0°F0.6°C 74% 10.4 mph W16.7 kmh W 16.1 mph25.9 kmh 29.74 in1007.1 mb - 0.00 in0.0 mm 0.00 in0.0 mm
06:00 AM 40.6°F4.8°C 33.0°F0.6°C 74% 8.1 mph W13.0 kmh W 13.8 mph22.2 kmh 29.74 in1007.1 mb - 0.00 in0.0 mm 0.00 in0.0 mm
06:10 AM 40.7°F4.8°C 33.4°F0.8°C 75% 12.7 mph WNW20.4 kmh WNW 29.9 mph48.1 kmh 29.77 in1008.1 mb - 0.00 in0.0 mm 0.00 in0.0 mm
06:20 AM 39.5°F4.2°C 34.1°F1.2°C 81% 9.2 mph WNW14.8 kmh WNW 13.8 mph22.2 kmh 29.76 in1007.8 mb - 0.00 in0.0 mm 0.00 in0.0 mm
06:30 AM 38.4°F3.6°C 33.7°F0.9°C 83% 6.9 mph WNW11.1 kmh WNW 11.5 mph18.5 kmh 29.77 in1008.1 mb - 0.00 in0.0 mm 0.00 in0.0 mm
06:40 AM 37.9°F3.3°C 33.5°F0.8°C 84% 5.8 mph W9.3 kmh W 8.1 mph13.0 kmh 29.77 in1008.1 mb - 0.00 in0.0 mm 0.00 in0.0 mm
06:50 AM 38.1°F3.4°C 33.4°F0.8°C 83% 8.1 mph WNW13.0 kmh WNW 13.8 mph22.2 kmh 29.77 in1008.1 mb - 0.00 in0.0 mm 0.00 in0.0 mm
07:00 AM 39.1°F3.9°C 34.1°F1.2°C 82% 9.2 mph WNW14.8 kmh WNW 20.7 mph33.3 kmh 29.79 in1008.8 mb - 0.00 in0.0 mm 0.00 in0.0 mm
07:10 AM 39.3°F4.1°C 34.0°F1.1°C 81% 4.6 mph WNW7.4 kmh WNW 8.1 mph13.0 kmh 29.79 in1008.8 mb - 0.00 in0.0 mm 0.00 in0.0 mm
07:20 AM 39.4°F4.1°C 34.1°F1.2°C 81% 5.8 mph WNW9.3 kmh WNW 13.8 mph22.2 kmh 29.79 in1008.8 mb - 0.00 in0.0 mm 0.00 in0.0 mm
07:30 AM 39.4°F4.1°C 34.1°F1.2°C 81% 5.8 mph WNW9.3 kmh WNW 11.5 mph18.5 kmh 29.80 in1009.1 mb - 0.00 in0.0 mm 0.00 in0.0 mm
07:40 AM 39.4°F4.1°C 34.1°F1.2°C 81% 8.1 mph WNW13.0 kmh WNW 19.6 mph31.5 kmh 29.80 in1009.1 mb - 0.00 in0.0 mm 0.00 in0.0 mm
07:50 AM 39.3°F4.1°C 34.0°F1.1°C 81% 6.9 mph W11.1 kmh W 8.1 mph13.0 kmh 29.80 in1009.1 mb - 0.00 in0.0 mm 0.00 in0.0 mm
08:00 AM 39.4°F4.1°C 34.1°F1.2°C 81% 4.6 mph WNW7.4 kmh WNW 5.8 mph9.3 kmh 29.80 in1009.1 mb - 0.00 in0.0 mm 0.00 in0.0 mm
08:10 AM 39.1°F3.9°C 33.8°F1.0°C 81% 2.3 mph WNW3.7 kmh WNW 4.6 mph7.4 kmh 29.81 in1009.5 mb - 0.00 in0.0 mm 0.00 in0.0 mm
08:20 AM 39.4°F4.1°C 34.0°F1.1°C 81% 5.8 mph WNW9.3 kmh WNW 11.5 mph18.5 kmh 29.82 in1009.8 mb - 0.00 in0.0 mm 0.00 in0.0 mm
08:30 AM 40.0°F4.4°C 34.3°F1.3°C 80% 6.9 mph W11.1 kmh W 12.7 mph20.4 kmh 29.82 in1009.8 mb - 0.00 in0.0 mm 0.00 in0.0 mm
08:40 AM 40.1°F4.5°C 34.7°F1.5°C 81% 4.6 mph W7.4 kmh W 6.9 mph11.1 kmh 29.82 in1009.8 mb - 0.00 in0.0 mm 0.00 in0.0 mm
08:50 AM 39.7°F4.3°C 34.4°F1.3°C 81% 2.3 mph WNW3.7 kmh WNW 11.5 mph18.5 kmh 29.82 in1009.8 mb - 0.00 in0.0 mm 0.00 in0.0 mm
09:00 AM 39.8°F4.3°C 34.1°F1.2°C 80% 4.6 mph WNW7.4 kmh WNW 8.1 mph13.0 kmh 29.82 in1009.8 mb - 0.00 in0.0 mm 0.00 in0.0 mm
09:10 AM 39.9°F4.4°C 34.3°F1.3°C 80% 4.6 mph W7.4 kmh W 5.8 mph9.3 kmh 29.82 in1009.8 mb - 0.00 in0.0 mm 0.00 in0.0 mm
09:20 AM 40.3°F4.6°C 34.3°F1.3°C 79% 5.8 mph WNW9.3 kmh WNW 8.1 mph13.0 kmh 29.82 in1009.8 mb - 0.00 in0.0 mm 0.00 in0.0 mm
09:30 AM 40.7°F4.8°C 34.4°F1.3°C 78% 5.8 mph W9.3 kmh W 8.1 mph13.0 kmh 29.82 in1009.8 mb - 0.00 in0.0 mm 0.00 in0.0 mm
09:40 AM 40.5°F4.7°C 34.5°F1.4°C 79% 8.1 mph W13.0 kmh W 11.5 mph18.5 kmh 29.83 in1010.2 mb - 0.00 in0.0 mm 0.00 in0.0 mm
09:50 AM 40.2°F4.6°C 34.5°F1.4°C 80% 5.8 mph W9.3 kmh W 9.2 mph14.8 kmh 29.83 in1010.2 mb - 0.00 in0.0 mm 0.00 in0.0 mm
10:00 AM 39.8°F4.3°C 34.8°F1.6°C 82% 3.5 mph W5.6 kmh W 8.1 mph13.0 kmh 29.83 in1010.2 mb - 0.00 in0.0 mm 0.00 in0.0 mm
10:10 AM 40.1°F4.5°C 34.7°F1.5°C 81% 6.9 mph W11.1 kmh W 13.8 mph22.2 kmh 29.84 in1010.5 mb - 0.00 in0.0 mm 0.00 in0.0 mm
10:20 AM 41.4°F5.2°C 35.1°F1.7°C 78% 11.5 mph WNW18.5 kmh WNW 13.8 mph22.2 kmh 29.84 in1010.5 mb - 0.00 in0.0 mm 0.00 in0.0 mm
10:30 AM 41.7°F5.4°C 35.0°F1.7°C 77% 10.4 mph W16.7 kmh W 13.8 mph22.2 kmh 29.84 in1010.5 mb - 0.00 in0.0 mm 0.00 in0.0 mm
10:40 AM 41.9°F5.5°C 35.2°F1.8°C 77% 6.9 mph WNW11.1 kmh WNW 15.0 mph24.1 kmh 29.85 in1010.8 mb - 0.00 in0.0 mm 0.00 in0.0 mm
10:50 AM 42.1°F5.6°C 35.7°F2.1°C 78% 3.5 mph W5.6 kmh W 6.9 mph11.1 kmh 29.85 in1010.8 mb - 0.00 in0.0 mm 0.00 in0.0 mm
11:00 AM 42.3°F5.7°C 36.0°F2.2°C 78% 5.8 mph W9.3 kmh W 11.5 mph18.5 kmh 29.85 in1010.8 mb - 0.00 in0.0 mm 0.00 in0.0 mm
11:10 AM 42.7°F5.9°C 36.0°F2.2°C 77% 9.2 mph W14.8 kmh W 13.8 mph22.2 kmh 29.86 in1011.2 mb - 0.00 in0.0 mm 0.00 in0.0 mm
11:20 AM 42.7°F5.9°C 36.7°F2.6°C 79% 6.9 mph WNW11.1 kmh WNW 11.5 mph18.5 kmh 29.86 in1011.2 mb - 0.00 in0.0 mm 0.00 in0.0 mm
11:30 AM 43.0°F6.1°C 37.3°F2.9°C 80% 6.9 mph W11.1 kmh W 9.2 mph14.8 kmh 29.86 in1011.2 mb - 0.00 in0.0 mm 0.00 in0.0 mm
11:40 AM 42.9°F6.1°C 37.2°F2.9°C 80% 3.5 mph WNW5.6 kmh WNW 5.8 mph9.3 kmh 29.86 in1011.2 mb - 0.00 in0.0 mm 0.00 in0.0 mm
11:50 AM 43.0°F6.1°C 37.3°F2.9°C 80% 4.6 mph WNW7.4 kmh WNW 11.5 mph18.5 kmh 29.86 in1011.2 mb - 0.00 in0.0 mm 0.00 in0.0 mm
12:00 PM 43.3°F6.3°C 37.5°F3.1°C 80% 5.8 mph W9.3 kmh W 8.1 mph13.0 kmh 29.86 in1011.2 mb - 0.00 in0.0 mm 0.00 in0.0 mm
12:10 PM 43.2°F6.2°C 36.5°F2.5°C 77% 10.4 mph W16.7 kmh W 13.8 mph22.2 kmh 29.86 in1011.2 mb - 0.00 in0.0 mm 0.00 in0.0 mm
12:20 PM 43.4°F6.3°C 37.0°F2.8°C 78% 6.9 mph WNW11.1 kmh WNW 16.1 mph25.9 kmh 29.85 in1010.8 mb - 0.00 in0.0 mm 0.00 in0.0 mm
12:30 PM 43.9°F6.6°C 37.2°F2.9°C 77% 4.6 mph WNW7.4 kmh WNW 8.1 mph13.0 kmh 29.85 in1010.8 mb - 0.00 in0.0 mm 0.00 in0.0 mm
12:40 PM 44.1°F6.7°C 37.0°F2.8°C 76% 8.1 mph WNW13.0 kmh WNW 11.5 mph18.5 kmh 29.85 in1010.8 mb - 0.00 in0.0 mm 0.00 in0.0 mm
12:50 PM 44.3°F6.8°C 36.9°F2.7°C 75% 8.1 mph WNW13.0 kmh WNW 13.8 mph22.2 kmh 29.85 in1010.8 mb - 0.00 in0.0 mm 0.00 in0.0 mm
01:00 PM 44.1°F6.7°C 37.7°F3.2°C 78% 4.6 mph W7.4 kmh W 11.5 mph18.5 kmh 29.84 in1010.5 mb - 0.00 in0.0 mm 0.00 in0.0 mm
01:10 PM 43.6°F6.4°C 37.8°F3.2°C 80% 5.8 mph WNW9.3 kmh WNW 9.2 mph14.8 kmh 29.84 in1010.5 mb - 0.00 in0.0 mm 0.00 in0.0 mm
01:20 PM 43.4°F6.3°C 37.6°F3.1°C 80% 8.1 mph WSW13.0 kmh WSW 16.1 mph25.9 kmh 29.84 in1010.5 mb - 0.00 in0.0 mm 0.00 in0.0 mm
01:30 PM 43.1°F6.2°C 37.7°F3.2°C 81% 6.9 mph WSW11.1 kmh WSW 11.5 mph18.5 kmh 29.83 in1010.2 mb - 0.00 in0.0 mm 0.00 in0.0 mm
01:40 PM 43.2°F6.2°C 37.4°F3.0°C 80% 9.2 mph W14.8 kmh W 16.1 mph25.9 kmh 29.83 in1010.2 mb - 0.00 in0.0 mm 0.00 in0.0 mm
01:50 PM 43.8°F6.6°C 37.7°F3.2°C 79% 6.9 mph W11.1 kmh W 12.7 mph20.4 kmh 29.82 in1009.8 mb - 0.00 in0.0 mm 0.00 in0.0 mm
02:00 PM 43.8°F6.6°C 37.4°F3.0°C 78% 6.9 mph W11.1 kmh W 9.2 mph14.8 kmh 29.81 in1009.5 mb - 0.00 in0.0 mm 0.00 in0.0 mm
02:10 PM 44.1°F6.7°C 37.3°F2.9°C 77% 6.9 mph WSW11.1 kmh WSW 13.8 mph22.2 kmh 29.81 in1009.5 mb - 0.00 in0.0 mm 0.00 in0.0 mm
02:20 PM 43.7°F6.5°C 37.6°F3.1°C 79% 5.8 mph WNW9.3 kmh WNW 11.5 mph18.5 kmh 29.80 in1009.1 mb - 0.00 in0.0 mm 0.00 in0.0 mm
02:30 PM 43.7°F6.5°C 37.6°F3.1°C 79% 9.2 mph W14.8 kmh W 16.1 mph25.9 kmh 29.80 in1009.1 mb - 0.00 in0.0 mm 0.00 in0.0 mm
02:40 PM 43.8°F6.6°C 37.4°F3.0°C 78% 6.9 mph W11.1 kmh W 11.5 mph18.5 kmh 29.79 in1008.8 mb - 0.00 in0.0 mm 0.00 in0.0 mm
02:50 PM 43.9°F6.6°C 37.5°F3.1°C 78% 10.4 mph W16.7 kmh W 16.1 mph25.9 kmh 29.78 in1008.5 mb - 0.00 in0.0 mm 0.00 in0.0 mm
03:00 PM 44.0°F6.7°C 37.6°F3.1°C 78% 8.1 mph WNW13.0 kmh WNW 13.8 mph22.2 kmh 29.78 in1008.5 mb - 0.00 in0.0 mm 0.00 in0.0 mm
03:10 PM 44.1°F6.7°C 37.7°F3.2°C 78% 6.9 mph W11.1 kmh W 11.5 mph18.5 kmh 29.78 in1008.5 mb - 0.00 in0.0 mm 0.00 in0.0 mm
03:20 PM 44.1°F6.7°C 38.0°F3.3°C 79% 6.9 mph W11.1 kmh W 11.5 mph18.5 kmh 29.77 in1008.1 mb - 0.00 in0.0 mm 0.00 in0.0 mm
03:30 PM 44.2°F6.8°C 38.1°F3.4°C 79% 8.1 mph W13.0 kmh W 11.5 mph18.5 kmh 29.76 in1007.8 mb - 0.00 in0.0 mm 0.00 in0.0 mm
03:40 PM 44.3°F6.8°C 38.2°F3.4°C 79% 6.9 mph WNW11.1 kmh WNW 8.1 mph13.0 kmh 29.76 in1007.8 mb - 0.00 in0.0 mm 0.00 in0.0 mm
03:50 PM 44.3°F6.8°C 38.2°F3.4°C 79% 6.9 mph SW11.1 kmh SW 9.2 mph14.8 kmh 29.75 in1007.5 mb - 0.00 in0.0 mm 0.00 in0.0 mm
04:00 PM 44.1°F6.7°C 38.0°F3.3°C 79% 9.2 mph WSW14.8 kmh WSW 13.8 mph22.2 kmh 29.74 in1007.1 mb - 0.00 in0.0 mm 0.00 in0.0 mm
04:10 PM 44.0°F6.7°C 37.9°F3.3°C 79% 4.6 mph W7.4 kmh W 8.1 mph13.0 kmh 29.74 in1007.1 mb - 0.00 in0.0 mm 0.00 in0.0 mm
04:20 PM 43.9°F6.6°C 38.1°F3.4°C 80% 5.8 mph W9.3 kmh W 9.2 mph14.8 kmh 29.74 in1007.1 mb - 0.00 in0.0 mm 0.00 in0.0 mm
04:30 PM 43.8°F6.6°C 38.0°F3.3°C 80% 5.8 mph W9.3 kmh W 8.1 mph13.0 kmh 29.73 in1006.8 mb - 0.00 in0.0 mm 0.00 in0.0 mm
04:40 PM 43.7°F6.5°C 38.3°F3.5°C 81% 4.6 mph WSW7.4 kmh WSW 11.5 mph18.5 kmh 29.72 in1006.4 mb - 0.00 in0.0 mm 0.00 in0.0 mm
04:50 PM 43.6°F6.4°C 38.5°F3.6°C 82% 6.9 mph W11.1 kmh W 12.7 mph20.4 kmh 29.71 in1006.1 mb - 0.00 in0.0 mm 0.00 in0.0 mm
05:00 PM 43.6°F6.4°C 38.5°F3.6°C 82% 5.8 mph WSW9.3 kmh WSW 11.5 mph18.5 kmh 29.70 in1005.8 mb - 0.01 in0.3 mm 0.01 in0.3 mm
05:10 PM 43.5°F6.4°C 38.7°F3.7°C 83% 6.9 mph NW11.1 kmh NW 11.5 mph18.5 kmh 29.69 in1005.4 mb - 0.00 in0.0 mm 0.01 in0.3 mm
05:20 PM 43.3°F6.3°C 38.8°F3.8°C 84% 4.6 mph W7.4 kmh W 9.2 mph14.8 kmh 29.67 in1004.7 mb - 0.01 in0.3 mm 0.02 in0.5 mm
05:30 PM 43.1°F6.2°C 38.9°F3.8°C 85% 4.6 mph WSW7.4 kmh WSW 11.5 mph18.5 kmh 29.66 in1004.4 mb - 0.01 in0.3 mm 0.03 in0.8 mm
05:40 PM 43.4°F6.3°C 39.5°F4.2°C 86% 5.8 mph W9.3 kmh W 10.4 mph16.7 kmh 29.64 in1003.7 mb - 0.01 in0.3 mm 0.04 in1.0 mm
05:50 PM 44.2°F6.8°C 40.5°F4.7°C 87% 8.1 mph W13.0 kmh W 13.8 mph22.2 kmh 29.62 in1003.0 mb - 0.00 in0.0 mm 0.04 in1.0 mm
06:00 PM 44.8°F7.1°C 41.2°F5.1°C 87% 9.2 mph WSW14.8 kmh WSW 13.8 mph22.2 kmh 29.60 in1002.4 mb - 0.01 in0.3 mm 0.05 in1.3 mm
06:10 PM 45.2°F7.3°C 41.6°F5.3°C 87% 9.2 mph W14.8 kmh W 16.1 mph25.9 kmh 29.58 in1001.7 mb - 0.01 in0.3 mm 0.06 in1.5 mm
06:20 PM 45.6°F7.6°C 41.9°F5.5°C 87% 11.5 mph WSW18.5 kmh WSW 21.9 mph35.2 kmh 29.56 in1001.0 mb - 0.01 in0.3 mm 0.07 in1.8 mm
06:30 PM 45.8°F7.7°C 42.5°F5.8°C 88% 13.8 mph WSW22.2 kmh WSW 21.9 mph35.2 kmh 29.54 in1000.3 mb - 0.01 in0.3 mm 0.08 in2.0 mm
06:40 PM 46.0°F7.8°C 42.6°F5.9°C 88% 12.7 mph W20.4 kmh W 20.7 mph33.3 kmh 29.52 in999.7 mb - 0.01 in0.3 mm 0.09 in2.3 mm
06:50 PM 46.3°F7.9°C 42.9°F6.1°C 88% 11.5 mph WNW18.5 kmh WNW 21.9 mph35.2 kmh 29.51 in999.3 mb - 0.01 in0.3 mm 0.10 in2.5 mm
07:00 PM 46.3°F7.9°C 43.2°F6.2°C 89% 11.5 mph WSW18.5 kmh WSW 21.9 mph35.2 kmh 29.49 in998.6 mb - 0.01 in0.3 mm 0.11 in2.8 mm
07:10 PM 46.6°F8.1°C 43.5°F6.4°C 89% 10.4 mph WSW16.7 kmh WSW 16.1 mph25.9 kmh 29.48 in998.3 mb - 0.02 in0.5 mm 0.13 in3.3 mm
07:20 PM 47.1°F8.4°C 44.0°F6.7°C 89% 10.4 mph WSW16.7 kmh WSW 19.6 mph31.5 kmh 29.46 in997.6 mb - 0.01 in0.3 mm 0.14 in3.6 mm
07:30 PM 47.8°F8.8°C 44.8°F7.1°C 89% 12.7 mph W20.4 kmh W 25.3 mph40.7 kmh 29.45 in997.3 mb - 0.00 in0.0 mm 0.14 in3.6 mm
07:40 PM 48.4°F9.1°C 45.6°F7.6°C 90% 11.5 mph WSW18.5 kmh WSW 18.4 mph29.6 kmh 29.44 in997.0 mb - 0.01 in0.3 mm 0.15 in3.8 mm
07:50 PM 48.8°F9.3°C 46.0°F7.8°C 90% 11.5 mph W18.5 kmh W 21.9 mph35.2 kmh 29.42 in996.3 mb - 0.00 in0.0 mm 0.15 in3.8 mm
08:00 PM 48.9°F9.4°C 46.1°F7.8°C 90% 10.4 mph W16.7 kmh W 16.1 mph25.9 kmh 29.41 in995.9 mb - 0.01 in0.3 mm 0.16 in4.1 mm
08:10 PM 49.0°F9.4°C 46.2°F7.9°C 90% 9.2 mph WNW14.8 kmh WNW 16.1 mph25.9 kmh 29.40 in995.6 mb - 0.00 in0.0 mm 0.16 in4.1 mm
08:20 PM 49.3°F9.6°C 46.5°F8.1°C 90% 9.2 mph WNW14.8 kmh WNW 13.8 mph22.2 kmh 29.40 in995.6 mb - 0.00 in0.0 mm 0.16 in4.1 mm
08:30 PM 49.6°F9.8°C 46.8°F8.2°C 90% 9.2 mph WSW14.8 kmh WSW 16.1 mph25.9 kmh 29.38 in994.9 mb - 0.01 in0.3 mm 0.17 in4.3 mm
08:40 PM 49.8°F9.9°C 47.0°F8.3°C 90% 10.4 mph WSW16.7 kmh WSW 18.4 mph29.6 kmh 29.38 in994.9 mb - 0.00 in0.0 mm 0.17 in4.3 mm
08:50 PM 50.0°F10.0°C 47.2°F8.4°C 90% 11.5 mph W18.5 kmh W 16.1 mph25.9 kmh 29.37 in994.6 mb - 0.01 in0.3 mm 0.18 in4.6 mm
09:00 PM 50.3°F10.2°C 47.5°F8.6°C 90% 9.2 mph WSW14.8 kmh WSW 16.1 mph25.9 kmh 29.36 in994.2 mb - 0.01 in0.3 mm 0.18 in4.6 mm
09:10 PM 50.4°F10.2°C 50.1°F10.1°C 99% 8.1 mph W13.0 kmh W 12.7 mph20.4 kmh 29.36 in994.2 mb - 0.00 in0.0 mm 0.18 in4.6 mm
09:20 PM 50.6°F10.3°C 50.3°F10.2°C 99% 8.1 mph WNW13.0 kmh WNW 13.8 mph22.2 kmh 29.35 in993.9 mb - 0.00 in0.0 mm 0.18 in4.6 mm
09:30 PM 50.7°F10.4°C 50.4°F10.2°C 99% 9.2 mph WNW14.8 kmh WNW 16.1 mph25.9 kmh 29.34 in993.6 mb - 0.00 in0.0 mm 0.18 in4.6 mm
09:40 PM 50.8°F10.4°C 50.5°F10.3°C 99% 8.1 mph W13.0 kmh W 12.7 mph20.4 kmh 29.34 in993.6 mb - 0.01 in0.3 mm 0.19 in4.8 mm
09:50 PM 50.8°F10.4°C 50.5°F10.3°C 99% 10.4 mph WNW16.7 kmh WNW 21.9 mph35.2 kmh 29.33 in993.2 mb - 0.00 in0.0 mm 0.19 in4.8 mm
10:00 PM 50.8°F10.4°C 50.5°F10.3°C 99% 13.8 mph WNW22.2 kmh WNW 23.0 mph37.0 kmh 29.33 in993.2 mb - 0.00 in0.0 mm 0.19 in4.8 mm
10:10 PM 50.7°F10.4°C 48.8°F9.3°C 93% 13.8 mph WNW22.2 kmh WNW 20.7 mph33.3 kmh 29.32 in992.9 mb - 0.00 in0.0 mm 0.19 in4.8 mm
10:20 PM 52.0°F11.1°C 49.4°F9.7°C 91% 12.7 mph W20.4 kmh W 19.6 mph31.5 kmh 29.32 in992.9 mb - 0.00 in0.0 mm 0.19 in4.8 mm
10:30 PM 52.5°F11.4°C 50.2°F10.1°C 92% 12.7 mph WNW20.4 kmh WNW 16.1 mph25.9 kmh 29.32 in992.9 mb - 0.00 in0.0 mm 0.19 in4.8 mm
10:40 PM 53.8°F12.1°C 49.4°F9.7°C 85% 18.4 mph WNW29.6 kmh WNW 32.2 mph51.8 kmh 29.32 in992.9 mb - 0.00 in0.0 mm 0.19 in4.8 mm
10:50 PM 53.8°F12.1°C 49.1°F9.5°C 84% 16.1 mph W25.9 kmh W 29.9 mph48.1 kmh 29.32 in992.9 mb - 0.00 in0.0 mm 0.19 in4.8 mm
11:00 PM 53.4°F11.9°C 48.4°F9.1°C 83% 15.0 mph W24.1 kmh W 23.0 mph37.0 kmh 29.32 in992.9 mb - 0.00 in0.0 mm 0.19 in4.8 mm
11:10 PM 53.2°F11.8°C 47.5°F8.6°C 81% 13.8 mph W22.2 kmh W 21.9 mph35.2 kmh 29.32 in992.9 mb - 0.00 in0.0 mm 0.19 in4.8 mm
11:20 PM 52.8°F11.6°C 47.1°F8.4°C 81% 15.0 mph W24.1 kmh W 20.7 mph33.3 kmh 29.32 in992.9 mb - 0.00 in0.0 mm 0.19 in4.8 mm
11:30 PM 52.7°F11.5°C 46.7°F8.2°C 80% 17.3 mph WNW27.8 kmh WNW 28.8 mph46.3 kmh 29.32 in992.9 mb - 0.00 in0.0 mm 0.19 in4.8 mm
11:40 PM 52.5°F11.4°C 46.8°F8.2°C 81% 11.5 mph WNW18.5 kmh WNW 21.9 mph35.2 kmh 29.33 in993.2 mb - 0.00 in0.0 mm 0.19 in4.8 mm
11:50 PM 52.1°F11.2°C 45.4°F7.4°C 78% 11.5 mph W18.5 kmh W 16.1 mph25.9 kmh 29.34 in993.6 mb - 0.00 in0.0 mm 0.19 in4.8 mm